Time;durP1;ratioP1;P1;durP2;ratioP2;P2;SDS_P1;SDS_P2;PMS_P1;PMS_P2;Temp;Humidity;BMP_temperature;BMP_pressure;BME280_temperature;BME280_humidity;BME280_pressure;Samples;Min_cycle;Max_cycle;Signal;HPM_P1;HPM_P2
2022/04/27 00:00:25;;;;;;;0.20;0.20;;;;;;;12.76;71.14;100219.91;6216110;23;20090;-71
2022/04/27 00:02:56;;;;;;;0.20;0.20;;;;;;;12.78;71.70;100223.13;6215674;23;20418;-72
2022/04/27 00:05:25;;;;;;;0.20;0.20;;;;;;;12.68;71.72;100209.84;6215624;23;20030;-71
2022/04/27 00:07:54;;;;;;;0.20;0.20;;;;;;;12.70;72.20;100210.25;6215257;23;20016;-72
2022/04/27 00:10:22;;;;;;;0.20;0.20;;;;;;;12.79;73.07;100210.81;6215930;23;20310;-71
2022/04/27 00:12:51;;;;;;;0.20;0.20;;;;;;;12.80;72.43;100212.41;6215171;23;20005;-72
2022/04/27 00:15:23;;;;;;;0.20;0.20;;;;;;;12.74;72.29;100205.53;6215583;23;20299;-71
2022/04/27 00:17:54;;;;;;;0.20;0.20;;;;;;;12.75;72.39;100195.97;6216771;23;20009;-71
2022/04/27 00:20:23;;;;;;;0.20;0.20;;;;;;;12.77;72.54;100199.19;6215137;23;20374;-72
2022/04/27 00:22:54;;;;;;;0.30;0.30;;;;;;;12.74;72.89;100202.75;6214829;23;20008;-71
2022/04/27 00:25:23;;;;;;;0.20;0.20;;;;;;;12.97;74.02;100192.28;6215826;23;20095;-71
2022/04/27 00:27:49;;;;;;;0.20;0.20;;;;;;;12.85;72.98;100184.97;6215031;23;20008;-71
2022/04/27 00:30:14;;;;;;;0.20;0.20;;;;;;;12.70;72.70;100182.34;6214704;23;20016;-71
2022/04/27 00:32:43;;;;;;;0.20;0.20;;;;;;;12.82;72.68;100196.06;6215313;23;20008;-71
2022/04/27 00:35:11;;;;;;;0.20;0.20;;;;;;;12.75;72.70;100193.19;6215061;23;20008;-71
2022/04/27 00:37:37;;;;;;;0.30;0.30;;;;;;;12.63;73.26;100194.22;6214964;23;20404;-71
2022/04/27 00:40:06;;;;;;;0.20;0.20;;;;;;;12.66;73.81;100203.81;6215374;23;20051;-71
2022/04/27 00:42:34;;;;;;;0.20;0.20;;;;;;;12.56;74.23;100196.88;6215273;23;20067;-71
2022/04/27 00:45:02;;;;;;;0.20;0.20;;;;;;;12.58;74.70;100194.53;6215806;23;20012;-71
2022/04/27 00:47:31;;;;;;;0.20;0.20;;;;;;;12.67;73.97;100189.47;6214969;23;20008;-71
2022/04/27 00:50:03;;;;;;;0.20;0.20;;;;;;;12.72;73.22;100193.94;6215069;23;20004;-71
2022/04/27 00:52:32;;;;;;;0.20;0.20;;;;;;;12.55;73.53;100193.28;6215625;23;20305;-71
2022/04/27 00:55:01;;;;;;;0.20;0.20;;;;;;;12.41;74.21;100193.09;6217153;23;20083;-73
2022/04/27 00:57:26;;;;;;;0.20;0.20;;;;;;;12.41;74.99;100203.41;6216642;23;20440;-71
2022/04/27 00:59:57;;;;;;;0.20;0.20;;;;;;;12.33;74.89;100199.72;6214250;23;20005;-72
2022/04/27 01:02:23;;;;;;;0.20;0.20;;;;;;;12.30;75.14;100197.69;6214884;23;20009;-71
2022/04/27 01:04:49;;;;;;;0.20;0.20;;;;;;;12.26;75.59;100205.22;6214820;23;20015;-71
2022/04/27 01:07:14;;;;;;;0.20;0.20;;;;;;;12.28;75.94;100206.44;6215194;23;20012;-71
2022/04/27 01:09:47;;;;;;;0.20;0.20;;;;;;;12.32;74.83;100209.28;6215475;23;20330;-71
2022/04/27 01:12:18;;;;;;;0.20;0.20;;;;;;;12.36;74.78;100207.38;6209972;23;20013;-71
2022/04/27 01:14:47;;;;;;;0.20;0.20;;;;;;;12.33;74.99;100210.88;6214388;23;20063;-71
2022/04/27 01:17:13;;;;;;;0.20;0.20;;;;;;;12.36;75.47;100218.53;6215506;23;20135;-71
2022/04/27 01:19:39;;;;;;;0.20;0.20;;;;;;;12.40;74.02;100211.00;6214692;23;20032;-71
2022/04/27 01:22:07;;;;;;;0.20;0.20;;;;;;;12.35;74.61;100216.88;6214712;23;20005;-71
2022/04/27 01:24:36;;;;;;;0.20;0.20;;;;;;;12.37;74.98;100208.97;6214762;23;20019;-71
2022/04/27 01:27:05;;;;;;;0.20;0.20;;;;;;;12.32;73.66;100206.50;6214741;23;20043;-71
2022/04/27 01:29:33;;;;;;;0.20;0.20;;;;;;;12.27;74.13;100204.03;6214378;23;20048;-71
2022/04/27 01:32:01;;;;;;;0.20;0.20;;;;;;;12.31;74.94;100221.63;6215408;23;20005;-71
2022/04/27 01:34:29;;;;;;;0.20;0.20;;;;;;;12.30;74.76;100203.25;6216720;23;20005;-72
2022/04/27 01:37:59;;;;;;;0.20;0.20;;;;;;;12.31;74.04;100210.47;6217439;23;20005;-72
2022/04/27 01:39:42;;;;;;;0.20;0.20;;;;;;;12.31;73.31;100216.84;6218489;23;20447;-71
2022/04/27 01:42:15;;;;;;;0.20;0.20;;;;;;;12.25;73.88;100211.94;6217079;23;20012;-71
2022/04/27 01:44:43;;;;;;;0.20;0.20;;;;;;;12.14;74.48;100216.53;6218625;23;20036;-71
2022/04/27 01:47:08;;;;;;;0.20;0.20;;;;;;;12.14;74.42;100200.59;6216577;23;20068;-71
2022/04/27 01:49:34;;;;;;;0.20;0.20;;;;;;;12.13;74.80;100217.72;6217410;23;20013;-71
2022/04/27 01:54:43;;;;;;;0.20;0.20;;;;;;;12.13;74.72;100200.97;6218560;23;20036;-71
2022/04/27 01:57:12;;;;;;;0.20;0.20;;;;;;;12.07;74.64;100208.84;6216931;23;20417;-71
2022/04/27 01:59:41;;;;;;;0.20;0.20;;;;;;;12.11;74.92;100203.34;6216446;23;20009;-72
2022/04/27 02:02:10;;;;;;;0.20;0.20;;;;;;;12.11;74.20;100201.38;6216864;23;20013;-71
2022/04/27 02:04:36;;;;;;;0.20;0.20;;;;;;;12.01;74.35;100200.00;6217618;23;20024;-71
2022/04/27 02:07:02;;;;;;;0.20;0.20;;;;;;;12.04;75.24;100207.63;6216813;23;20005;-71
2022/04/27 02:09:31;;;;;;;0.20;0.20;;;;;;;12.02;75.66;100209.97;6216422;23;20019;-71
2022/04/27 02:12:02;;;;;;;0.20;0.20;;;;;;;12.03;76.06;100203.22;6217444;23;20444;-72
2022/04/27 02:14:30;;;;;;;0.20;0.20;;;;;;;12.15;75.77;100198.66;6216705;23;20426;-71
2022/04/27 02:16:59;;;;;;;0.20;0.20;;;;;;;12.18;74.68;100203.47;6216639;23;20092;-71
2022/04/27 02:19:27;;;;;;;0.20;0.20;;;;;;;12.18;75.68;100206.25;6217097;23;20009;-71
2022/04/27 02:21:57;;;;;;;0.20;0.20;;;;;;;12.12;75.16;100196.59;6216757;23;20037;-71
2022/04/27 02:24:24;;;;;;;0.20;0.20;;;;;;;12.10;75.58;100207.31;6217006;23;20008;-71
2022/04/27 02:26:54;;;;;;;0.20;0.20;;;;;;;12.28;76.13;100200.03;6216601;23;20013;-71
2022/04/27 02:29:21;;;;;;;0.20;0.20;;;;;;;12.16;75.29;100203.03;6216367;23;20336;-71
2022/04/27 02:31:49;;;;;;;0.20;0.20;;;;;;;12.12;75.58;100202.16;6216089;23;20016;-71
2022/04/27 02:34:17;;;;;;;0.20;0.20;;;;;;;12.10;75.01;100193.38;6216216;23;20011;-71
2022/04/27 02:36:48;;;;;;;0.20;0.20;;;;;;;12.34;75.57;100195.75;6217801;23;20001;-71
2022/04/27 02:39:19;;;;;;;0.20;0.20;;;;;;;12.22;75.11;100198.75;6216216;23;20004;-71
2022/04/27 02:41:45;;;;;;;0.20;0.20;;;;;;;12.17;75.10;100199.06;6216190;23;20095;-72
2022/04/27 02:44:14;;;;;;;0.20;0.20;;;;;;;12.20;74.55;100203.91;6216013;23;20047;-71
2022/04/27 02:46:42;;;;;;;0.20;0.20;;;;;;;12.16;74.76;100209.41;6215909;23;20035;-71
2022/04/27 02:51:58;;;;;;;0.20;0.20;;;;;;;12.09;74.65;100203.72;6217938;23;20088;-70
2022/04/27 02:54:26;;;;;;;0.20;0.20;;;;;;;12.03;74.82;100206.00;6216655;23;20321;-71
2022/04/27 02:56:55;;;;;;;0.20;0.20;;;;;;;11.99;75.35;100202.38;6216063;23;20123;-71
2022/04/27 02:59:20;;;;;;;0.20;0.20;;;;;;;11.92;75.08;100205.00;6216747;23;20012;-71
2022/04/27 03:01:46;;;;;;;0.20;0.20;;;;;;;11.86;75.81;100200.13;6215936;23;20329;-70
2022/04/27 03:04:15;;;;;;;0.20;0.20;;;;;;;11.77;76.68;100201.16;6215988;23;20013;-71
2022/04/27 03:06:43;;;;;;;0.20;0.20;;;;;;;11.81;75.88;100198.41;6216210;23;20015;-71
2022/04/27 03:09:11;;;;;;;0.20;0.20;;;;;;;11.77;76.10;100197.53;6216205;23;20015;-71
2022/04/27 03:11:40;;;;;;;0.20;0.20;;;;;;;11.70;77.08;100192.66;6216005;23;20071;-71
2022/04/27 03:14:05;;;;;;;0.20;0.20;;;;;;;11.68;76.67;100188.63;6217520;23;20005;-71
2022/04/27 03:16:31;;;;;;;0.20;0.20;;;;;;;11.68;76.66;100197.00;6216828;23;20084;-71
2022/04/27 03:18:56;;;;;;;0.20;0.20;;;;;;;11.69;76.74;100201.38;6216137;23;20437;-71
2022/04/27 03:21:24;;;;;;;0.20;0.20;;;;;;;11.63;76.32;100197.28;6215721;23;20457;-71
2022/04/27 03:23:53;;;;;;;0.20;0.20;;;;;;;11.58;76.74;100200.38;6215348;23;20009;-71
2022/04/27 03:26:21;;;;;;;0.20;0.20;;;;;;;11.52;77.47;100203.47;6216046;23;20015;-71
2022/04/27 03:28:47;;;;;;;0.20;0.20;;;;;;;11.53;77.68;100202.28;6218233;23;20063;-71
2022/04/27 03:31:15;;;;;;;0.20;0.20;;;;;;;11.48;77.66;100205.38;6220852;23;20008;-71
2022/04/27 03:33:46;;;;;;;0.20;0.20;;;;;;;11.49;77.45;100206.97;6220639;23;20011;-71
2022/04/27 03:36:14;;;;;;;0.20;0.20;;;;;;;11.51;77.61;100203.84;6220610;23;20123;-71
2022/04/27 03:38:48;;;;;;;0.20;0.20;;;;;;;11.50;77.74;100205.81;6221562;23;20486;-71
2022/04/27 03:41:20;;;;;;;0.20;0.20;;;;;;;11.51;78.30;100201.06;6220540;23;20066;-71
2022/04/27 03:43:50;;;;;;;0.20;0.20;;;;;;;11.43;78.22;100211.25;6220625;23;20455;-71
2022/04/27 03:46:19;;;;;;;0.20;0.20;;;;;;;11.41;78.18;100208.03;6220449;23;20012;-71
2022/04/27 03:48:46;;;;;;;0.20;0.20;;;;;;;11.46;78.09;100216.09;6247731;23;20484;-71
2022/04/27 03:51:12;;;;;;;0.20;0.20;;;;;;;11.51;78.10;100218.56;6220925;23;20008;-71
2022/04/27 03:53:38;;;;;;;0.20;0.20;;;;;;;11.55;77.43;100215.84;6220478;23;20504;-71
2022/04/27 03:56:06;;;;;;;0.20;0.20;;;;;;;11.46;77.88;100227.22;6220583;23;20028;-71
2022/04/27 03:58:32;;;;;;;0.22;0.22;;;;;;;11.49;77.61;100226.47;6220197;23;20012;-71
2022/04/27 04:00:59;;;;;;;0.20;0.20;;;;;;;11.51;77.73;100224.16;6220803;23;20313;-71
2022/04/27 04:03:27;;;;;;;0.20;0.20;;;;;;;11.45;77.62;100228.41;6221081;23;20086;-71
2022/04/27 04:05:56;;;;;;;0.20;0.20;;;;;;;11.52;78.19;100227.75;6220918;23;20019;-71
2022/04/27 04:08:22;;;;;;;0.20;0.20;;;;;;;11.51;77.54;100224.16;6220343;23;20008;-71
2022/04/27 04:10:50;;;;;;;0.20;0.20;;;;;;;11.59;77.62;100224.28;6220569;23;20020;-70
2022/04/27 04:13:19;;;;;;;0.20;0.20;;;;;;;11.55;77.53;100227.78;6220658;23;20013;-71
2022/04/27 04:15:47;;;;;;;0.20;0.20;;;;;;;11.55;78.24;100236.16;6220362;23;20007;-71
2022/04/27 04:18:12;;;;;;;0.20;0.20;;;;;;;11.53;77.92;100238.50;6220465;23;20004;-71
2022/04/27 04:20:41;;;;;;;0.20;0.20;;;;;;;11.57;76.98;100237.78;6221706;23;20049;-71
2022/04/27 04:23:09;;;;;;;0.20;0.20;;;;;;;11.57;77.52;100233.00;6221097;23;20015;-71
2022/04/27 04:28:31;;;;;;;;;;;;;;;11.64;77.08;100237.91;6247597;23;20344;-71
2022/04/27 04:31:03;;;;;;;0.20;0.20;;;;;;;11.66;77.35;100239.16;6215232;23;19915;-74
2022/04/27 04:33:32;;;;;;;0.20;0.20;;;;;;;12.04;76.85;100240.28;6215042;23;20000;-71
2022/04/27 04:35:58;;;;;;;0.20;0.20;;;;;;;12.81;73.79;100239.13;6215073;23;20004;-71
2022/04/27 04:38:26;;;;;;;0.20;0.20;;;;;;;13.49;71.22;100246.47;6215786;23;20311;-71
2022/04/27 04:40:54;;;;;;;0.20;0.20;;;;;;;14.23;68.50;100244.84;6215001;23;20032;-71
2022/04/27 04:43:20;;;;;;;0.20;0.20;;;;;;;14.88;66.22;100246.97;6215045;23;20012;-73
2022/04/27 04:45:52;;;;;;;0.20;0.20;;;;;;;15.53;63.44;100243.28;6215341;23;20008;-71
2022/04/27 04:48:22;;;;;;;0.20;0.20;;;;;;;16.23;60.72;100244.66;6214807;23;20040;-71
2022/04/27 04:50:50;;;;;;;0.20;0.20;;;;;;;16.85;58.39;100248.28;6214762;23;20012;-71
2022/04/27 04:53:21;;;;;;;0.20;0.20;;;;;;;17.31;56.64;100241.72;6215265;23;20009;-71
2022/04/27 04:55:50;;;;;;;0.20;0.20;;;;;;;17.85;55.08;100248.75;6214727;23;20009;-71
2022/04/27 04:58:16;;;;;;;0.20;0.20;;;;;;;18.36;54.08;100237.94;6215294;23;20012;-71
2022/04/27 05:00:45;;;;;;;0.20;0.20;;;;;;;18.22;53.13;100239.66;6214618;23;20508;-71
2022/04/27 05:03:11;;;;;;;0.20;0.20;;;;;;;18.04;54.71;100244.59;6214500;23;20019;-68
2022/04/27 05:05:41;;;;;;;0.20;0.20;;;;;;;18.69;52.30;100248.53;6214893;23;20087;-70
2022/04/27 05:08:08;;;;;;;0.20;0.20;;;;;;;18.48;51.89;100245.88;6189472;23;20392;-69
2022/04/27 05:10:37;;;;;;;0.20;0.20;;;;;;;19.04;51.16;100250.22;6215996;23;20016;-69
2022/04/27 05:13:05;;;;;;;0.20;0.20;;;;;;;19.77;49.04;100251.00;6214978;23;20012;-69
2022/04/27 05:15:37;;;;;;;0.20;0.20;;;;;;;20.07;47.70;100253.78;6214782;23;20036;-69
2022/04/27 05:18:03;;;;;;;0.20;0.20;;;;;;;20.66;47.64;100255.28;6215157;23;20012;-70
2022/04/27 05:20:31;;;;;;;0.20;0.20;;;;;;;21.02;45.85;100260.31;6214477;23;20373;-70
2022/04/27 05:22:57;;;;;;;0.20;0.20;;;;;;;21.07;45.50;100260.59;6214499;23;20013;-71
2022/04/27 05:25:22;;;;;;;0.20;0.20;;;;;;;21.40;44.65;100264.44;6214936;23;20381;-71
2022/04/27 05:27:48;;;;;;;0.20;0.20;;;;;;;21.09;46.38;100263.00;6214442;23;20452;-71
2022/04/27 05:33:00;;;;;;;0.20;0.20;;;;;;;22.09;44.41;100258.09;6215965;23;20024;-70
2022/04/27 05:35:27;;;;;;;0.20;0.20;;;;;;;22.84;42.43;100265.59;6214416;23;20414;-72
2022/04/27 05:37:57;;;;;;;0.20;0.20;;;;;;;23.50;41.55;100261.38;6215589;23;20005;-72
2022/04/27 05:40:25;;;;;;;0.20;0.20;;;;;;;23.51;40.98;100256.50;6214585;23;20122;-72
2022/04/27 05:42:54;;;;;;;0.20;0.20;;;;;;;23.75;40.59;100263.50;6214836;23;20472;-70
2022/04/27 05:45:24;;;;;;;0.20;0.20;;;;;;;23.85;40.64;100264.44;6214716;23;20015;-71
2022/04/27 05:47:49;;;;;;;0.20;0.20;;;;;;;23.50;38.92;100263.44;6214577;23;20429;-71
2022/04/27 05:50:17;;;;;;;0.20;0.20;;;;;;;22.99;40.64;100268.88;6214464;23;20012;-70
2022/04/27 05:52:58;;;;;;;0.20;0.20;;;;;;;23.61;39.23;100268.81;6215339;23;20005;-71
2022/04/27 05:55:24;;;;;;;0.20;0.20;;;;;;;22.97;42.07;100262.88;6214317;23;20013;-71
2022/04/27 05:58:09;;;;;;;0.20;0.20;;;;;;;23.27;40.10;100265.25;6214192;23;20059;-71
2022/04/27 06:00:34;;;;;;;0.20;0.20;;;;;;;23.69;38.28;100264.53;6214214;23;20016;-73
2022/04/27 06:03:03;;;;;;;0.20;0.20;;;;;;;24.11;37.33;100267.31;6214180;23;20008;-72
2022/04/27 06:05:29;;;;;;;0.20;0.20;;;;;;;23.43;39.82;100270.09;6214102;23;20004;-72
2022/04/27 06:07:55;;;;;;;0.20;0.20;;;;;;;23.65;40.60;100275.19;6214124;23;20016;-72
2022/04/27 06:10:20;;;;;;;0.10;0.10;;;;;;;23.67;41.51;100272.72;6214491;23;20036;-72
2022/04/27 06:12:49;;;;;;;0.10;0.10;;;;;;;23.59;40.79;100271.28;6214785;23;20334;-72
2022/04/27 06:15:15;;;;;;;0.20;0.20;;;;;;;23.26;42.30;100279.91;6214325;23;20035;-72
2022/04/27 06:17:41;;;;;;;0.20;0.20;;;;;;;22.79;43.72;100277.47;6213999;23;20433;-73
2022/04/27 06:20:10;;;;;;;0.10;0.10;;;;;;;23.15;42.76;100277.38;6214110;23;20020;-72
2022/04/27 06:22:36;;;;;;;0.10;0.10;;;;;;;23.02;44.33;100285.03;6215945;23;20012;-72
2022/04/27 06:25:04;;;;;;;0.20;0.20;;;;;;;23.42;42.89;100287.59;6215981;23;20008;-72
2022/04/27 06:27:32;;;;;;;0.20;0.20;;;;;;;23.27;43.55;100290.00;6217292;23;20011;-72
2022/04/27 06:30:01;;;;;;;0.10;0.10;;;;;;;23.16;44.25;100292.34;6220285;23;20083;-72
2022/04/27 06:32:29;;;;;;;0.10;0.10;;;;;;;22.94;42.94;100284.41;6220914;23;20294;-73
2022/04/27 06:34:55;;;;;;;0.20;0.20;;;;;;;22.48;45.17;100280.69;6220608;23;20035;-72
2022/04/27 06:37:23;;;;;;;0.10;0.10;;;;;;;22.20;43.28;100287.81;6220263;23;20027;-74
2022/04/27 06:39:51;;;;;;;0.13;0.13;;;;;;;23.04;42.73;100290.25;6220439;23;20016;-71
2022/04/27 06:42:21;;;;;;;0.10;0.10;;;;;;;23.16;42.41;100292.34;6221020;23;20329;-71
2022/04/27 06:44:50;;;;;;;0.20;0.20;;;;;;;22.28;44.10;100287.66;6221360;23;20440;-72
2022/04/27 06:47:15;;;;;;;0.10;0.10;;;;;;;22.45;43.78;100292.91;6220459;23;20012;-71
2022/04/27 06:49:43;;;;;;;0.20;0.20;;;;;;;22.87;42.35;100295.91;6221294;23;20008;-72
2022/04/27 06:52:12;;;;;;;0.20;0.20;;;;;;;23.10;41.75;100294.94;6220496;23;20004;-72
2022/04/27 06:54:39;;;;;;;0.17;0.17;;;;;;;23.20;41.77;100295.91;6220451;23;20036;-72
2022/04/27 06:57:08;;;;;;;0.17;0.17;;;;;;;23.19;40.98;100294.31;6220203;23;20091;-72
2022/04/27 06:59:36;;;;;;;0.20;0.20;;;;;;;23.73;39.60;100293.63;6221041;23;20031;-73
2022/04/27 07:02:02;;;;;;;0.20;0.20;;;;;;;24.19;39.13;100297.91;6247272;23;20004;-73
2022/04/27 07:04:31;;;;;;;0.10;0.10;;;;;;;24.34;39.66;100298.22;6220413;23;20038;-73
2022/04/27 07:06:56;;;;;;;0.20;0.20;;;;;;;24.77;39.07;100299.75;6220917;23;20432;-72
2022/04/27 07:09:25;;;;;;;0.10;0.10;;;;;;;24.99;38.47;100296.94;6220743;23;20000;-72
2022/04/27 07:11:57;;;;;;;0.10;0.10;;;;;;;25.39;37.29;100302.06;6220976;23;20008;-73
2022/04/27 07:14:23;;;;;;;0.10;0.10;;;;;;;25.38;37.22;100306.97;6220033;23;20299;-72
2022/04/27 07:16:48;;;;;;;0.17;0.17;;;;;;;26.01;36.43;100302.22;6220198;23;20082;-72
2022/04/27 07:19:14;;;;;;;0.20;0.20;;;;;;;25.95;35.91;100304.88;6220096;23;20008;-72
2022/04/27 07:21:48;;;;;;;0.10;0.10;;;;;;;25.70;35.14;100300.09;6246728;23;20014;-73
2022/04/27 07:24:13;;;;;;;0.10;0.10;;;;;;;25.37;35.89;100294.00;6220859;23;20015;-73
2022/04/27 07:26:42;;;;;;;0.10;0.10;;;;;;;25.33;35.91;100299.03;6220197;23;20274;-73
2022/04/27 07:29:10;;;;;;;0.20;0.20;;;;;;;25.30;36.24;100297.09;6220252;23;20321;-73
2022/04/27 07:31:38;;;;;;;0.20;0.20;;;;;;;25.76;35.00;100303.16;6220277;23;20330;-73
2022/04/27 07:34:04;;;;;;;0.10;0.10;;;;;;;25.51;35.30;100306.91;6220129;23;20004;-75
2022/04/27 07:36:32;;;;;;;0.10;0.10;;;;;;;25.82;34.03;100309.84;6220365;23;20066;-73
2022/04/27 07:39:00;;;;;;;0.10;0.10;;;;;;;25.11;34.39;100304.69;6219925;23;20008;-72
2022/04/27 07:41:28;;;;;;;0.10;0.10;;;;;;;25.87;34.33;100309.25;6220400;23;20440;-72
2022/04/27 07:43:59;;;;;;;0.10;0.10;;;;;;;25.28;35.82;100311.00;6246872;23;20027;-73
2022/04/27 07:46:28;;;;;;;0.10;0.10;;;;;;;24.73;36.82;100302.69;6220176;23;20433;-72
2022/04/27 07:48:56;;;;;;;0.10;0.10;;;;;;;25.36;36.26;100312.34;6220022;23;20023;-71
2022/04/27 07:51:22;;;;;;;0.10;0.10;;;;;;;26.59;34.10;100316.63;6219757;23;20007;-71
2022/04/27 07:53:50;;;;;;;0.13;0.13;;;;;;;26.05;34.52;100315.09;6219599;23;20079;-74
2022/04/27 07:56:22;;;;;;;0.10;0.10;;;;;;;25.91;34.90;100309.91;6220333;23;20081;-74
2022/04/27 07:58:50;;;;;;;0.20;0.20;;;;;;;25.60;34.78;100315.53;6220263;23;20012;-73
2022/04/27 08:01:16;;;;;;;0.13;0.13;;;;;;;25.48;34.95;100316.41;6220141;23;20344;-73
2022/04/27 08:03:47;;;;;;;0.10;0.10;;;;;;;26.54;33.68;100314.38;6220239;23;20000;-73
2022/04/27 08:06:20;;;;;;;0.20;0.20;;;;;;;26.36;33.88;100312.19;6220708;23;20325;-73
2022/04/27 08:08:48;;;;;;;0.15;0.15;;;;;;;26.34;33.44;100313.94;6220225;23;20426;-73
2022/04/27 08:11:15;;;;;;;0.10;0.10;;;;;;;25.34;34.75;100315.63;6219799;23;20008;-73
2022/04/27 08:13:44;;;;;;;0.10;0.10;;;;;;;26.34;33.53;100313.94;6246814;23;20000;-73
2022/04/27 08:16:13;;;;;;;0.13;0.13;;;;;;;26.56;32.93;100317.53;6219102;23;20011;-72
2022/04/27 08:18:45;;;;;;;0.10;0.10;;;;;;;27.26;31.64;100305.66;6219775;23;20004;-72
2022/04/27 08:21:14;;;;;;;0.10;0.10;;;;;;;27.51;31.51;100313.13;6219968;23;20008;-72
2022/04/27 08:23:44;;;;;;;0.10;0.10;;;;;;;28.09;30.60;100321.50;6220368;23;20467;-72
2022/04/27 08:26:16;;;;;;;0.10;0.10;;;;;;;27.84;30.43;100313.28;6220027;23;20066;-72
2022/04/27 08:28:48;;;;;;;0.10;0.10;;;;;;;27.04;31.28;100314.34;6219868;23;20004;-72
2022/04/27 08:31:22;;;;;;;0.10;0.10;;;;;;;27.10;30.85;100318.97;6219514;23;20036;-72
2022/04/27 08:33:50;;;;;;;0.10;0.10;;;;;;;27.88;30.02;100319.63;6219541;23;20011;-72
2022/04/27 08:36:23;;;;;;;0.10;0.10;;;;;;;26.45;31.04;100324.97;6220206;23;20016;-73
2022/04/27 08:38:51;;;;;;;0.10;0.10;;;;;;;26.18;31.94;100334.16;6219494;23;20008;-73
2022/04/27 08:41:22;;;;;;;0.20;0.20;;;;;;;25.63;32.05;100333.75;6219414;23;20519;-73
2022/04/27 08:43:51;;;;;;;0.10;0.10;;;;;;;25.71;32.42;100329.38;6219400;23;20034;-73
2022/04/27 08:46:16;;;;;;;0.20;0.20;;;;;;;26.07;32.73;100328.84;6220375;23;20095;-71
2022/04/27 08:48:51;;;;;;;0.20;0.20;;;;;;;26.20;33.22;100321.00;6219702;23;20373;-72
2022/04/27 08:51:20;;;;;;;0.10;0.10;;;;;;;26.95;31.76;100317.97;6219486;23;20011;-72
2022/04/27 08:53:50;;;;;;;0.20;0.20;;;;;;;27.11;31.39;100312.03;6219414;23;20043;-72
2022/04/27 08:56:16;;;;;;;0.17;0.17;;;;;;;27.42;30.87;100320.44;6219755;23;20076;-72
2022/04/27 08:58:45;;;;;;;0.10;0.10;;;;;;;27.74;30.33;100314.56;6219646;23;20000;-72
2022/04/27 09:01:13;;;;;;;0.20;0.20;;;;;;;27.07;29.84;100317.09;6219671;23;20093;-72
2022/04/27 09:03:44;;;;;;;0.10;0.10;;;;;;;27.61;29.16;100318.38;6219621;23;20012;-71
2022/04/27 09:06:13;;;;;;;0.10;0.10;;;;;;;27.41;30.17;100310.28;6219370;23;20008;-71
2022/04/27 09:08:43;;;;;;;0.10;0.10;;;;;;;27.86;28.51;100310.75;6219236;23;20004;-71
2022/04/27 09:11:30;;;;;;;0.10;0.10;;;;;;;27.97;28.40;100313.13;6246577;23;20012;-72
2022/04/27 09:14:01;;;;;;;0.10;0.10;;;;;;;28.36;28.22;100314.13;6219277;23;20008;-72
2022/04/27 09:20:46;;;;;;;0.10;0.10;;;;;;;27.45;28.86;100315.84;6219354;23;20012;-72
2022/04/27 09:22:06;;;;;;;0.10;0.10;;;;;;;28.15;28.42;100316.69;6245852;23;20050;-72
2022/04/27 09:24:54;;;;;;;0.10;0.10;;;;;;;28.06;29.23;100321.66;6219565;23;20018;-71
2022/04/27 09:27:21;;;;;;;0.20;0.20;;;;;;;28.08;30.13;100317.06;6194564;23;20008;-70
2022/04/27 09:30:10;;;;;;;0.10;0.10;;;;;;;27.74;29.69;100317.41;6214042;23;20091;-71
2022/04/27 09:32:36;;;;;;;0.10;0.10;;;;;;;28.12;30.48;100316.88;6216143;23;20015;-71
2022/04/27 09:35:03;;;;;;;0.10;0.10;;;;;;;28.29;29.72;100317.31;6190083;23;20091;-71
2022/04/27 09:37:41;;;;;;;0.20;0.20;;;;;;;27.72;30.93;100305.69;6215187;23;20004;-71
2022/04/27 09:40:13;;;;;;;0.20;0.20;;;;;;;28.32;29.63;100313.47;6215778;23;20068;-70
2022/04/27 09:42:43;;;;;;;0.10;0.10;;;;;;;28.50;29.18;100319.16;6214764;23;20432;-71
2022/04/27 09:45:13;;;;;;;0.10;0.10;;;;;;;28.17;30.85;100307.63;6215242;23;20032;-71
2022/04/27 09:47:49;;;;;;;0.10;0.10;;;;;;;27.71;31.48;100315.53;6214130;23;20042;-71
2022/04/27 09:50:20;;;;;;;0.10;0.10;;;;;;;27.69;31.56;100310.25;6214229;23;20000;-70
2022/04/27 09:52:49;;;;;;;0.10;0.10;;;;;;;26.89;32.97;100314.16;6213889;23;20013;-70
2022/04/27 09:55:19;;;;;;;0.10;0.10;;;;;;;27.12;33.28;100310.75;6214827;23;20444;-71
2022/04/27 09:57:50;;;;;;;0.10;0.10;;;;;;;27.04;32.54;100308.63;6216108;23;20008;-71
2022/04/27 10:00:18;;;;;;;0.20;0.20;;;;;;;26.42;34.16;100312.44;6192643;23;20017;-71
2022/04/27 10:02:49;;;;;;;0.10;0.10;;;;;;;26.26;33.79;100312.63;6215905;23;20090;-70
2022/04/27 10:05:15;;;;;;;0.10;0.10;;;;;;;26.56;34.21;100314.69;6211853;23;20016;-70
2022/04/27 10:07:42;;;;;;;0.10;0.10;;;;;;;26.23;34.75;100311.53;6191075;23;20009;-70
2022/04/27 10:10:11;;;;;;;0.20;0.20;;;;;;;25.88;35.20;100313.69;6216018;23;20011;-70
2022/04/27 10:12:39;;;;;;;0.10;0.10;;;;;;;26.16;34.56;100306.09;6215195;23;20366;-71
2022/04/27 10:15:08;;;;;;;0.10;0.10;;;;;;;26.59;34.15;100301.56;6215456;23;20035;-71
2022/04/27 10:17:39;;;;;;;0.10;0.10;;;;;;;26.26;34.61;100301.22;6215990;23;20040;-71
2022/04/27 10:20:35;;;;;;;0.10;0.10;;;;;;;26.47;33.34;100299.59;6215871;23;20012;-70
2022/04/27 10:23:22;;;;;;;0.10;0.10;;;;;;;25.99;34.42;100305.53;6216389;23;20401;-71
2022/04/27 10:26:06;;;;;;;0.10;0.10;;;;;;;26.77;33.43;100300.81;6217514;23;20012;-71
2022/04/27 10:28:35;;;;;;;0.10;0.10;;;;;;;26.42;33.43;100297.34;6215715;23;20001;-71
2022/04/27 10:31:08;;;;;;;0.20;0.20;;;;;;;27.06;32.06;100294.66;6215029;23;20099;-71
2022/04/27 10:33:40;;;;;;;0.10;0.10;;;;;;;27.11;32.08;100297.75;6215842;23;20012;-74
2022/04/27 10:36:28;;;;;;;0.10;0.10;;;;;;;25.78;34.10;100306.34;6216587;23;20444;-70
2022/04/27 10:39:11;;;;;;;0.10;0.10;;;;;;;26.06;33.76;100310.97;6215829;23;20068;-71
2022/04/27 10:41:41;;;;;;;0.10;0.10;;;;;;;25.78;34.38;100297.78;6215712;23;20066;-71
2022/04/27 10:44:07;;;;;;;0.20;0.20;;;;;;;25.75;33.43;100301.59;6217732;23;20031;-71
2022/04/27 10:46:41;;;;;;;0.20;0.20;;;;;;;24.98;35.62;100304.69;6216121;23;20425;-71
2022/04/27 10:49:28;;;;;;;0.10;0.10;;;;;;;25.02;36.29;100296.00;6215755;23;20464;-70
2022/04/27 10:52:04;;;;;;;0.10;0.10;;;;;;;25.11;36.66;100298.19;6215995;23;20013;-71
2022/04/27 10:54:37;;;;;;;0.10;0.10;;;;;;;26.17;34.72;100301.19;6215508;23;20004;-70
2022/04/27 10:57:15;;;;;;;;;;;;;;;26.42;34.37;100306.72;6216292;23;20004;-73
2022/04/27 10:59:56;;;;;;;0.10;0.10;;;;;;;25.92;34.07;100300.09;6215576;23;19904;-70
2022/04/27 11:02:39;;;;;;;0.20;0.20;;;;;;;25.43;35.61;100308.44;6216386;23;20051;-71
2022/04/27 11:05:18;;;;;;;0.20;0.20;;;;;;;25.54;35.51;100297.44;6217590;23;20028;-70
2022/04/27 11:08:09;;;;;;;0.10;0.10;;;;;;;25.35;34.99;100299.34;6215021;23;20005;-71
2022/04/27 11:10:39;;;;;;;0.20;0.20;;;;;;;24.65;36.41;100286.31;6215663;23;20008;-71
2022/04/27 11:13:07;;;;;;;0.10;0.10;;;;;;;25.34;35.57;100290.00;6215612;23;20008;-70
2022/04/27 11:15:33;;;;;;;0.10;0.10;;;;;;;25.05;36.43;100295.91;6166783;23;20008;-71
2022/04/27 11:18:04;;;;;;;0.13;0.13;;;;;;;25.61;33.16;100294.31;6215894;23;20013;-71
2022/04/27 11:20:34;;;;;;;0.10;0.10;;;;;;;26.13;33.94;100287.88;6216508;23;20405;-71
2022/04/27 11:23:07;;;;;;;0.10;0.10;;;;;;;25.77;33.88;100288.44;6215547;23;20009;-71
2022/04/27 11:25:39;;;;;;;0.10;0.10;;;;;;;25.53;34.55;100285.25;6216444;23;20013;-70
2022/04/27 11:28:07;;;;;;;0.10;0.10;;;;;;;25.98;33.50;100283.97;6217164;23;20418;-70
2022/04/27 11:30:38;;;;;;;0.10;0.10;;;;;;;25.66;31.89;100281.53;6220339;23;20023;-70
2022/04/27 11:33:05;;;;;;;0.10;0.10;;;;;;;26.19;30.61;100278.69;6247567;23;20004;-71
2022/04/27 11:35:44;;;;;;;0.10;0.10;;;;;;;26.04;31.95;100279.25;6220469;23;20008;-71
2022/04/27 11:38:11;;;;;;;0.10;0.10;;;;;;;25.61;35.24;100286.56;6220778;23;20113;-70
2022/04/27 11:40:39;;;;;;;0.10;0.10;;;;;;;25.60;35.71;100270.75;6220729;23;20012;-73
2022/04/27 11:43:06;;;;;;;0.10;0.10;;;;;;;25.92;32.33;100276.50;6220681;23;20012;-71
2022/04/27 11:45:31;;;;;;;0.10;0.10;;;;;;;26.26;30.98;100273.53;6221087;23;20012;-70
2022/04/27 11:48:03;;;;;;;0.10;0.10;;;;;;;26.57;32.09;100259.22;6195533;23;20451;-70
2022/04/27 11:50:34;;;;;;;0.10;0.10;;;;;;;25.52;35.34;100271.50;6242885;23;20012;-71